createdAt,value
2022-10-14T08:14:35.899Z,450
2022-10-14T08:16:17.845Z,450
2022-10-14T08:18:17.833Z,450
2022-10-14T08:20:17.637Z,450
2022-10-14T08:22:17.414Z,450
2022-10-14T08:24:18.217Z,450
2022-10-14T08:26:18.052Z,450
2022-10-14T08:28:18.213Z,450
2022-10-14T08:30:18.021Z,450
2022-10-14T08:32:17.904Z,450
2022-10-14T08:34:17.669Z,450
2022-10-14T08:36:17.538Z,450
2022-10-14T08:38:17.621Z,450
2022-10-14T08:40:17.522Z,450
2022-10-14T08:42:18.376Z,450
2022-10-14T08:44:18.169Z,450
2022-10-14T08:46:18.116Z,450
2022-10-14T08:48:17.908Z,450
2022-10-14T08:50:17.652Z,450
2022-10-14T08:52:17.487Z,450
2022-10-14T08:54:18.253Z,450
2022-10-14T08:56:18.159Z,450
2022-10-14T08:58:18.018Z,450
2022-10-14T09:00:17.861Z,450
2022-10-14T09:02:18.064Z,450
2022-10-14T09:04:17.882Z,450
2022-10-14T09:06:17.873Z,450
2022-10-14T09:08:17.701Z,450
2022-10-14T09:10:17.445Z,450
2022-10-14T09:12:18.217Z,450
2022-10-14T09:14:18.057Z,450
2022-10-14T09:16:17.861Z,450
2022-10-14T09:18:17.853Z,450
2022-10-14T09:20:17.625Z,450
2022-10-14T09:22:17.500Z,475
2022-10-14T09:24:18.304Z,475
2022-10-14T09:26:18.201Z,480
2022-10-14T09:28:18.077Z,476
2022-10-14T09:30:17.978Z,483
2022-10-14T09:32:17.923Z,478
2022-10-14T09:34:17.730Z,484
2022-10-14T09:36:18.079Z,475
2022-10-14T09:38:17.593Z,488
2022-10-14T09:40:17.439Z,482
2022-10-14T09:42:18.317Z,475
2022-10-14T09:44:18.312Z,479
2022-10-14T09:46:18.110Z,493
2022-10-14T09:48:17.918Z,472
2022-10-14T09:50:17.872Z,476
2022-10-14T09:52:17.760Z,453
2022-10-14T09:54:17.591Z,459
2022-10-14T09:56:18.060Z,475
2022-10-14T09:58:17.941Z,481
2022-10-14T10:00:17.929Z,474
2022-10-14T10:02:17.784Z,485
2022-10-14T10:04:17.547Z,480
2022-10-14T10:06:17.370Z,475
2022-10-14T10:08:18.158Z,474
2022-10-14T10:10:18.095Z,469
2022-10-14T10:12:17.972Z,484
2022-10-14T10:14:17.749Z,479
2022-10-14T10:16:17.802Z,471
2022-10-14T10:18:17.798Z,466
2022-10-14T10:20:17.617Z,480
2022-10-14T10:22:17.490Z,476
2022-10-14T10:24:18.325Z,478
2022-10-14T10:26:18.176Z,483
2022-10-14T10:28:18.452Z,474
2022-10-14T10:30:18.330Z,465
2022-10-14T10:32:18.173Z,479
2022-10-14T10:34:18.059Z,494
2022-10-14T10:38:17.900Z,486
2022-10-14T10:40:17.781Z,482
2022-10-14T10:42:17.842Z,486
2022-10-14T10:44:17.605Z,489
2022-10-14T10:46:17.433Z,482
2022-10-14T10:48:18.276Z,476
2022-10-14T10:50:18.323Z,462
2022-10-14T10:52:20.322Z,475
2022-10-14T10:54:17.631Z,483
2022-10-14T10:56:17.449Z,477
2022-10-14T10:58:18.261Z,478
2022-10-14T11:00:18.203Z,499
2022-10-14T11:02:18.306Z,495
2022-10-14T11:04:18.099Z,499
2022-10-14T11:06:17.875Z,505
2022-10-14T11:08:17.711Z,489
2022-10-14T11:10:17.838Z,496
2022-10-14T11:12:17.668Z,504
2022-10-14T11:14:17.514Z,495
2022-10-14T11:16:18.374Z,507
2022-10-14T11:18:18.337Z,520
2022-10-14T11:20:18.297Z,522
2022-10-14T11:22:18.073Z,524
2022-10-14T11:24:17.944Z,534
2022-10-14T11:26:17.795Z,540
2022-10-14T11:28:17.851Z,551
2022-10-14T11:30:17.749Z,563
2022-10-14T11:32:17.753Z,586
2022-10-14T11:34:17.613Z,588
2022-10-14T11:36:17.550Z,570
2022-10-14T11:38:18.351Z,572
2022-10-14T11:40:18.197Z,626
2022-10-14T11:42:18.091Z,619
2022-10-14T11:44:17.956Z,630
2022-10-14T11:46:17.848Z,640
2022-10-14T11:48:17.672Z,649
2022-10-14T11:50:17.488Z,645
2022-10-14T11:52:18.351Z,637
2022-10-14T11:54:18.086Z,641
2022-10-14T11:56:18.168Z,656
2022-10-14T11:58:17.997Z,637
2022-10-14T12:00:17.493Z,631
2022-10-14T12:02:18.362Z,638
2022-10-14T12:04:18.282Z,644
2022-10-14T12:06:18.135Z,634
2022-10-14T12:08:18.028Z,640
2022-10-14T12:10:17.908Z,620
2022-10-14T12:12:17.794Z,638
2022-10-14T12:14:17.646Z,643
2022-10-14T12:16:17.510Z,636
2022-10-14T12:18:17.585Z,639
2022-10-14T12:20:17.410Z,653
2022-10-14T12:22:18.159Z,624
2022-10-14T12:24:17.999Z,648
2022-10-14T12:26:17.762Z,638
2022-10-14T12:28:17.789Z,643
2022-10-14T12:30:17.732Z,622
2022-10-14T12:32:17.555Z,623
2022-10-14T12:34:17.427Z,625
2022-10-14T12:36:18.343Z,628
2022-10-14T12:38:18.127Z,629
2022-10-14T12:40:18.006Z,649
2022-10-14T12:42:17.860Z,633
2022-10-14T12:44:17.683Z,626
2022-10-14T12:46:17.771Z,622
2022-10-14T12:48:17.652Z,621
2022-10-14T12:50:17.599Z,628
2022-10-14T12:52:17.452Z,629
2022-10-14T12:54:18.324Z,627
2022-10-14T12:56:18.148Z,631
2022-10-14T12:58:17.916Z,614
2022-10-14T13:00:17.791Z,615
2022-10-14T13:02:17.670Z,616
2022-10-14T13:04:19.159Z,616
2022-10-14T13:06:18.179Z,601
2022-10-14T13:08:18.044Z,604
2022-10-14T13:10:17.911Z,596
2022-10-14T13:12:17.767Z,621
2022-10-14T13:14:17.676Z,614
2022-10-14T13:16:17.458Z,593
2022-10-14T13:18:17.489Z,604
2022-10-14T13:20:18.281Z,569
2022-10-14T13:22:18.153Z,590
2022-10-14T13:24:17.968Z,572
2022-10-14T13:26:17.780Z,578
2022-10-14T13:28:17.710Z,581
2022-10-14T13:30:17.441Z,577
2022-10-14T13:32:19.153Z,589
2022-10-14T13:34:17.521Z,585
2022-10-14T13:36:18.297Z,607
2022-10-14T13:38:18.068Z,606
2022-10-14T13:40:17.979Z,598
2022-10-14T13:42:17.850Z,595
2022-10-14T13:44:18.046Z,596
2022-10-14T13:46:17.877Z,596
2022-10-14T13:48:17.639Z,589
2022-10-14T13:50:17.445Z,589
2022-10-14T13:52:18.299Z,575
2022-10-14T13:54:18.150Z,593
2022-10-14T13:56:17.988Z,579
2022-10-14T13:58:17.848Z,579
2022-10-14T14:02:17.535Z,692
2022-10-14T14:04:18.358Z,650
2022-10-14T14:06:18.185Z,631
2022-10-14T14:08:37.097Z,646
2022-10-14T14:10:17.592Z,623
2022-10-14T14:12:17.582Z,632
2022-10-14T14:14:17.558Z,630
2022-10-14T14:16:17.456Z,654
2022-10-14T14:18:17.609Z,628
2022-10-14T14:20:17.447Z,651
2022-10-14T14:22:18.286Z,653
2022-10-14T14:24:18.056Z,627
2022-10-14T14:26:19.490Z,641
2022-10-14T14:28:17.638Z,617
2022-10-14T14:30:17.495Z,628
2022-10-14T14:32:18.398Z,638
2022-10-14T14:34:18.330Z,635
2022-10-14T14:36:22.468Z,631
2022-10-14T14:38:18.125Z,629
2022-10-14T14:40:17.945Z,632
2022-10-14T14:42:17.774Z,639
2022-10-14T14:44:25.996Z,605
2022-10-14T14:46:18.249Z,624
2022-10-14T14:48:18.051Z,634
2022-10-14T14:50:29.812Z,640
2022-10-14T14:52:17.381Z,632
2022-10-14T14:54:18.228Z,637
2022-10-14T14:56:18.039Z,634
2022-10-14T14:58:17.944Z,631
2022-10-14T15:00:17.740Z,617
2022-10-14T15:02:18.199Z,626
2022-10-14T15:04:18.076Z,614
2022-10-14T15:06:17.891Z,620
2022-10-14T15:08:17.645Z,620
2022-10-14T15:10:17.550Z,605
2022-10-14T15:12:17.774Z,620
2022-10-14T15:14:22.014Z,590
2022-10-14T15:16:18.066Z,599
2022-10-14T15:18:18.119Z,597
2022-10-14T15:20:17.986Z,593
2022-10-14T15:22:17.801Z,588
2022-10-14T15:24:17.675Z,595
2022-10-14T15:26:18.603Z,598
2022-10-14T15:28:17.777Z,595
2022-10-14T15:30:18.015Z,614
2022-10-14T15:32:17.880Z,614
2022-10-14T15:34:17.710Z,705
2022-10-14T15:36:17.593Z,790
2022-10-14T15:38:17.531Z,799
2022-10-14T15:40:17.417Z,762
2022-10-14T15:42:18.286Z,721
2022-10-14T15:44:18.091Z,715
2022-10-14T15:46:17.401Z,698
2022-10-14T15:48:17.657Z,664
2022-10-14T15:50:17.449Z,652
2022-10-14T15:52:19.336Z,654
2022-10-14T15:54:17.488Z,640
2022-10-14T15:56:18.435Z,643
2022-10-14T15:58:17.486Z,643
2022-10-14T16:00:18.264Z,636
2022-10-14T16:02:18.261Z,652
2022-10-14T16:04:18.081Z,616
2022-10-14T16:06:18.221Z,634
2022-10-14T16:08:18.110Z,621
2022-10-14T16:10:17.968Z,618
2022-10-14T16:12:17.833Z,616
2022-10-14T16:14:17.657Z,623
2022-10-14T16:16:17.453Z,633
2022-10-14T16:18:17.412Z,615
2022-10-14T16:20:18.229Z,621
2022-10-14T16:22:18.392Z,608
2022-10-14T16:24:18.197Z,591
2022-10-14T16:26:17.995Z,586
2022-10-14T16:28:17.827Z,598
2022-10-14T16:30:17.721Z,576
2022-10-14T16:32:17.545Z,566
2022-10-14T16:34:18.286Z,560
2022-10-14T16:36:18.084Z,582
2022-10-14T16:38:17.896Z,576
2022-10-14T16:40:17.702Z,563
2022-10-14T16:44:18.028Z,559
2022-10-14T16:46:17.861Z,546
2022-10-14T16:48:17.717Z,550
2022-10-14T16:50:18.170Z,532
2022-10-14T16:52:17.991Z,537
2022-10-14T16:54:17.850Z,516
2022-10-14T16:56:17.666Z,538
2022-10-14T16:58:17.591Z,538
2022-10-14T17:02:18.292Z,525
2022-10-14T17:04:18.126Z,516
2022-10-14T17:06:21.707Z,520
2022-10-14T17:08:17.835Z,496
2022-10-14T17:10:17.666Z,513
2022-10-14T17:12:17.544Z,520
2022-10-14T17:14:17.401Z,499
2022-10-14T17:16:18.319Z,506
2022-10-14T17:18:17.966Z,500
2022-10-14T17:20:17.843Z,494
2022-10-14T17:22:17.683Z,503
2022-10-14T17:24:17.493Z,483
2022-10-14T17:26:18.301Z,500
2022-10-14T17:28:18.239Z,506
2022-10-14T17:30:18.029Z,505
2022-10-14T17:32:17.937Z,492
2022-10-14T17:34:17.844Z,496
2022-10-14T17:36:17.706Z,493
2022-10-14T17:38:17.730Z,489
2022-10-14T17:40:17.542Z,472
2022-10-14T17:42:18.330Z,482
2022-10-14T17:44:18.169Z,469
2022-10-14T17:46:18.134Z,487
2022-10-14T17:48:17.937Z,486
2022-10-14T17:50:17.672Z,453
2022-10-14T17:52:17.473Z,489
2022-10-14T17:54:18.250Z,480
2022-10-14T17:56:18.062Z,489
2022-10-14T17:58:17.923Z,487
2022-10-14T18:00:17.736Z,479
2022-10-14T18:02:17.575Z,491
2022-10-14T18:04:17.536Z,479
2022-10-14T18:06:17.359Z,484
2022-10-14T18:08:18.182Z,496
2022-10-14T18:10:18.037Z,483
2022-10-14T18:12:17.840Z,482
2022-10-14T18:14:17.916Z,484
2022-10-14T18:16:17.913Z,472
2022-10-14T18:18:17.841Z,479
2022-10-14T18:20:17.839Z,495
2022-10-14T18:22:17.656Z,494
2022-10-14T18:24:17.469Z,483
2022-10-14T18:26:18.245Z,483
2022-10-14T18:28:18.138Z,503
2022-10-14T18:30:18.001Z,460
2022-10-14T18:32:18.061Z,496
2022-10-14T18:34:17.875Z,567
2022-10-14T18:36:17.706Z,516
2022-10-14T18:38:17.621Z,527
2022-10-14T18:40:17.547Z,514
2022-10-14T18:42:19.946Z,501
2022-10-14T18:44:17.756Z,497
2022-10-14T18:46:18.050Z,494
2022-10-14T18:48:17.861Z,492
2022-10-14T18:50:17.634Z,511
2022-10-14T18:52:17.444Z,538
2022-10-14T18:54:18.285Z,520
2022-10-14T18:56:18.104Z,525
2022-10-14T18:58:17.911Z,528
2022-10-14T19:00:17.843Z,520
2022-10-14T19:02:17.742Z,505
2022-10-14T19:04:17.540Z,512
2022-10-14T19:06:17.356Z,523
2022-10-14T19:08:18.187Z,481
2022-10-14T19:10:18.041Z,517
2022-10-14T19:12:17.868Z,500
2022-10-14T19:14:17.686Z,502
2022-10-14T19:16:17.748Z,507
2022-10-14T19:18:17.820Z,524
2022-10-14T19:20:17.643Z,508
2022-10-14T19:22:17.502Z,528
2022-10-14T19:24:18.353Z,512
2022-10-14T19:26:18.277Z,511
2022-10-14T19:28:18.216Z,512
2022-10-14T19:30:18.037Z,516
2022-10-14T19:32:18.015Z,536
2022-10-14T19:34:17.868Z,510
2022-10-14T19:36:17.661Z,528
2022-10-14T19:38:17.498Z,573
2022-10-14T19:40:19.806Z,530
2022-10-14T19:42:17.750Z,504
2022-10-14T19:44:17.573Z,509
2022-10-14T19:46:18.497Z,513
2022-10-14T19:48:18.343Z,506
2022-10-14T19:50:18.188Z,505
2022-10-14T19:52:18.008Z,479
2022-10-14T19:54:17.851Z,531
2022-10-14T19:56:17.777Z,507
2022-10-14T19:58:17.592Z,499
2022-10-14T20:00:18.350Z,485
2022-10-14T20:02:18.161Z,510
2022-10-14T20:04:17.996Z,518
2022-10-14T20:06:17.721Z,509
2022-10-14T20:08:17.585Z,540
2022-10-14T20:10:17.446Z,540
2022-10-14T20:12:18.267Z,533
2022-10-14T20:14:18.155Z,552
2022-10-14T20:16:17.945Z,568
2022-10-14T20:18:18.024Z,591
2022-10-14T20:20:17.884Z,610
2022-10-14T20:22:17.800Z,657
2022-10-14T20:24:17.535Z,578
2022-10-14T20:26:17.422Z,690
2022-10-14T20:28:17.586Z,679
2022-10-14T20:30:17.382Z,659
2022-10-14T20:32:18.199Z,683
2022-10-14T20:34:17.937Z,741
2022-10-14T20:36:18.081Z,770
2022-10-14T20:38:17.871Z,768
2022-10-14T20:40:17.742Z,756
2022-10-14T20:42:17.663Z,776
2022-10-14T20:44:21.535Z,738
2022-10-14T20:46:17.647Z,748
2022-10-14T20:48:17.461Z,772
2022-10-14T20:50:18.209Z,753
2022-10-14T20:52:18.264Z,717
2022-10-14T20:54:17.500Z,776
2022-10-14T20:56:18.395Z,732
2022-10-14T20:58:18.216Z,741
2022-10-14T21:00:18.014Z,721
2022-10-14T21:02:17.975Z,711
2022-10-14T21:04:17.860Z,726
2022-10-14T21:06:17.820Z,628
2022-10-14T21:08:17.671Z,619
2022-10-14T21:10:17.444Z,717
2022-10-14T21:12:18.198Z,614
2022-10-14T21:14:18.045Z,670
2022-10-14T21:16:17.786Z,669
2022-10-14T21:18:17.875Z,647
2022-10-14T21:20:17.627Z,665
2022-10-14T21:22:17.419Z,680
2022-10-14T21:24:18.293Z,713
2022-10-14T21:26:18.076Z,746
2022-10-14T21:28:18.023Z,703
2022-10-14T21:30:17.819Z,731
2022-10-14T21:32:17.756Z,775
2022-10-14T21:34:17.607Z,763
2022-10-14T21:36:17.429Z,729
2022-10-14T21:38:17.590Z,732
2022-10-14T21:40:17.535Z,737
2022-10-14T21:42:18.391Z,735
2022-10-14T21:44:18.204Z,717
2022-10-14T21:46:17.954Z,728
2022-10-14T21:48:17.814Z,693
2022-10-14T21:50:17.678Z,715
2022-10-14T21:52:17.502Z,705
2022-10-14T21:54:17.523Z,692
2022-10-14T21:56:18.318Z,708
2022-10-14T21:58:18.235Z,713
2022-10-14T22:00:20.442Z,701
2022-10-14T22:02:17.567Z,693
2022-10-14T22:04:17.422Z,678
2022-10-14T22:06:17.600Z,682
2022-10-14T22:08:17.459Z,683
2022-10-14T22:10:18.367Z,677
2022-10-14T22:12:18.108Z,669
2022-10-14T22:14:18.004Z,649
2022-10-14T22:16:17.756Z,641
2022-10-14T22:18:17.827Z,630
2022-10-14T22:20:17.667Z,623
2022-10-14T22:22:17.881Z,628
2022-10-14T22:24:17.693Z,626
2022-10-14T22:26:17.535Z,623
2022-10-14T22:28:18.440Z,607
2022-10-14T22:30:18.336Z,614
2022-10-14T22:32:18.227Z,616
2022-10-14T22:34:18.133Z,608
2022-10-14T22:36:19.327Z,583
2022-10-14T22:38:17.455Z,560
2022-10-14T22:40:18.196Z,557
2022-10-14T22:42:17.995Z,544
2022-10-14T22:44:17.553Z,535
2022-10-14T22:46:18.322Z,521
2022-10-14T22:48:18.099Z,544
2022-10-14T22:50:17.872Z,510
2022-10-14T22:52:17.821Z,526
2022-10-14T22:54:17.722Z,531
2022-10-14T22:56:17.604Z,517
2022-10-14T22:58:17.518Z,522
2022-10-14T23:00:17.414Z,508
2022-10-14T23:02:18.231Z,504
2022-10-14T23:04:18.068Z,511
2022-10-14T23:06:18.336Z,512
2022-10-14T23:08:18.100Z,505
2022-10-14T23:10:17.928Z,501
2022-10-14T23:12:17.859Z,517
2022-10-14T23:14:17.774Z,491
2022-10-14T23:16:17.628Z,522
2022-10-14T23:18:17.574Z,504
2022-10-14T23:20:17.431Z,495
2022-10-14T23:22:18.224Z,516
2022-10-14T23:24:18.131Z,506
2022-10-14T23:26:18.018Z,512
2022-10-14T23:28:17.849Z,517
2022-10-14T23:30:17.704Z,496
2022-10-14T23:34:18.252Z,512
2022-10-14T23:36:17.588Z,517
2022-10-14T23:38:17.497Z,520
2022-10-14T23:40:18.296Z,506
2022-10-14T23:42:18.188Z,519
2022-10-14T23:44:18.061Z,521
2022-10-14T23:46:17.866Z,507
2022-10-14T23:48:17.709Z,459
2022-10-14T23:50:17.601Z,502
2022-10-14T23:52:17.607Z,536
2022-10-14T23:54:17.441Z,532
2022-10-14T23:56:18.282Z,533
2022-10-14T23:58:17.601Z,529
